sensor_id;sensor_type;location;lat;lon;timestamp;P1;durP1;ratioP1;P2;durP2;ratioP2
51764;SDS011;37835;53.256;6.456;2023-02-28T00:01:11;12.05;;;2.65;;
51764;SDS011;37835;53.256;6.456;2023-02-28T00:03:37;9.15;;;2.20;;
51764;SDS011;37835;53.256;6.456;2023-02-28T00:06:03;12.15;;;2.55;;
51764;SDS011;37835;53.256;6.456;2023-02-28T00:08:30;10.18;;;2.60;;
51764;SDS011;37835;53.256;6.456;2023-02-28T00:10:56;10.23;;;2.20;;
51764;SDS011;37835;53.256;6.456;2023-02-28T00:13:25;7.30;;;2.10;;
51764;SDS011;37835;53.256;6.456;2023-02-28T00:15:58;8.15;;;2.20;;
51764;SDS011;37835;53.256;6.456;2023-02-28T00:18:31;3.28;;;1.80;;
51764;SDS011;37835;53.256;6.456;2023-02-28T00:20:57;8.73;;;2.45;;
51764;SDS011;37835;53.256;6.456;2023-02-28T00:23:24;9.30;;;2.55;;
51764;SDS011;37835;53.256;6.456;2023-02-28T00:25:50;11.70;;;2.63;;
51764;SDS011;37835;53.256;6.456;2023-02-28T00:28:16;6.30;;;2.40;;
51764;SDS011;37835;53.256;6.456;2023-02-28T00:30:41;12.00;;;2.58;;
51764;SDS011;37835;53.256;6.456;2023-02-28T00:33:07;8.43;;;2.13;;
51764;SDS011;37835;53.256;6.456;2023-02-28T00:35:33;7.47;;;2.22;;
51764;SDS011;37835;53.256;6.456;2023-02-28T00:37:58;12.48;;;2.15;;
51764;SDS011;37835;53.256;6.456;2023-02-28T00:40:24;6.63;;;2.60;;
51764;SDS011;37835;53.256;6.456;2023-02-28T00:42:50;9.27;;;2.60;;
51764;SDS011;37835;53.256;6.456;2023-02-28T00:45:15;7.20;;;2.08;;
51764;SDS011;37835;53.256;6.456;2023-02-28T00:47:41;10.85;;;2.50;;
51764;SDS011;37835;53.256;6.456;2023-02-28T00:50:06;10.48;;;2.72;;
51764;SDS011;37835;53.256;6.456;2023-02-28T00:52:33;7.55;;;2.08;;
51764;SDS011;37835;53.256;6.456;2023-02-28T00:54:59;7.32;;;2.10;;
51764;SDS011;37835;53.256;6.456;2023-02-28T00:57:25;16.13;;;2.20;;
51764;SDS011;37835;53.256;6.456;2023-02-28T00:59:51;8.80;;;2.38;;
51764;SDS011;37835;53.256;6.456;2023-02-28T01:02:19;6.75;;;2.20;;
51764;SDS011;37835;53.256;6.456;2023-02-28T01:04:45;7.13;;;2.20;;
51764;SDS011;37835;53.256;6.456;2023-02-28T01:07:11;9.32;;;2.30;;
51764;SDS011;37835;53.256;6.456;2023-02-28T01:09:37;6.05;;;1.80;;
51764;SDS011;37835;53.256;6.456;2023-02-28T01:12:02;6.30;;;1.95;;
51764;SDS011;37835;53.256;6.456;2023-02-28T01:14:28;9.00;;;1.80;;
51764;SDS011;37835;53.256;6.456;2023-02-28T01:16:54;8.25;;;2.10;;
51764;SDS011;37835;53.256;6.456;2023-02-28T01:19:19;11.75;;;2.40;;
51764;SDS011;37835;53.256;6.456;2023-02-28T01:21:45;8.43;;;2.10;;
51764;SDS011;37835;53.256;6.456;2023-02-28T01:24:10;10.23;;;2.28;;
51764;SDS011;37835;53.256;6.456;2023-02-28T01:26:36;9.65;;;2.17;;
51764;SDS011;37835;53.256;6.456;2023-02-28T01:29:02;6.95;;;1.90;;
51764;SDS011;37835;53.256;6.456;2023-02-28T01:31:28;10.18;;;2.20;;
51764;SDS011;37835;53.256;6.456;2023-02-28T01:36:28;8.70;;;1.90;;
51764;SDS011;37835;53.256;6.456;2023-02-28T01:38:54;6.85;;;2.08;;
51764;SDS011;37835;53.256;6.456;2023-02-28T01:41:21;7.90;;;2.10;;
51764;SDS011;37835;53.256;6.456;2023-02-28T01:46:15;4.68;;;1.90;;
51764;SDS011;37835;53.256;6.456;2023-02-28T01:51:37;7.10;;;2.05;;
51764;SDS011;37835;53.256;6.456;2023-02-28T01:54:11;13.68;;;2.78;;
51764;SDS011;37835;53.256;6.456;2023-02-28T01:56:42;10.20;;;2.50;;
51764;SDS011;37835;53.256;6.456;2023-02-28T01:59:12;7.45;;;2.20;;
51764;SDS011;37835;53.256;6.456;2023-02-28T02:01:42;9.95;;;2.75;;
51764;SDS011;37835;53.256;6.456;2023-02-28T02:04:08;10.52;;;2.42;;
51764;SDS011;37835;53.256;6.456;2023-02-28T02:06:43;5.75;;;2.10;;
51764;SDS011;37835;53.256;6.456;2023-02-28T02:09:10;5.18;;;1.90;;
51764;SDS011;37835;53.256;6.456;2023-02-28T02:11:36;10.50;;;1.83;;
51764;SDS011;37835;53.256;6.456;2023-02-28T02:14:12;9.10;;;1.92;;
51764;SDS011;37835;53.256;6.456;2023-02-28T02:36:52;7.22;;;2.17;;
51764;SDS011;37835;53.256;6.456;2023-02-28T02:39:30;12.32;;;2.47;;
51764;SDS011;37835;53.256;6.456;2023-02-28T02:42:08;8.20;;;2.40;;
51764;SDS011;37835;53.256;6.456;2023-02-28T02:44:42;9.32;;;2.50;;
51764;SDS011;37835;53.256;6.456;2023-02-28T02:47:15;9.43;;;2.63;;
51764;SDS011;37835;53.256;6.456;2023-02-28T02:49:45;13.43;;;2.40;;
51764;SDS011;37835;53.256;6.456;2023-02-28T02:52:18;9.13;;;2.10;;
51764;SDS011;37835;53.256;6.456;2023-02-28T02:54:48;6.38;;;1.88;;
51764;SDS011;37835;53.256;6.456;2023-02-28T02:57:22;5.07;;;1.85;;
51764;SDS011;37835;53.256;6.456;2023-02-28T02:59:50;4.85;;;1.70;;
51764;SDS011;37835;53.256;6.456;2023-02-28T03:02:19;8.27;;;2.08;;
51764;SDS011;37835;53.256;6.456;2023-02-28T03:04:48;5.53;;;1.60;;
51764;SDS011;37835;53.256;6.456;2023-02-28T03:07:17;10.73;;;2.75;;
51764;SDS011;37835;53.256;6.456;2023-02-28T03:09:50;9.02;;;1.88;;
51764;SDS011;37835;53.256;6.456;2023-02-28T03:12:19;8.02;;;1.77;;
51764;SDS011;37835;53.256;6.456;2023-02-28T03:14:50;5.18;;;1.70;;
51764;SDS011;37835;53.256;6.456;2023-02-28T03:20:37;4.78;;;1.55;;
51764;SDS011;37835;53.256;6.456;2023-02-28T03:23:07;9.48;;;1.67;;
51764;SDS011;37835;53.256;6.456;2023-02-28T03:26:02;9.10;;;2.03;;
51764;SDS011;37835;53.256;6.456;2023-02-28T03:31:03;7.88;;;2.40;;
51764;SDS011;37835;53.256;6.456;2023-02-28T03:33:42;6.88;;;1.80;;
51764;SDS011;37835;53.256;6.456;2023-02-28T03:36:19;4.20;;;1.65;;
51764;SDS011;37835;53.256;6.456;2023-02-28T03:39:17;13.85;;;2.25;;
51764;SDS011;37835;53.256;6.456;2023-02-28T03:41:59;7.97;;;1.92;;
51764;SDS011;37835;53.256;6.456;2023-02-28T03:44:32;7.10;;;2.42;;
51764;SDS011;37835;53.256;6.456;2023-02-28T03:47:12;8.38;;;1.90;;
51764;SDS011;37835;53.256;6.456;2023-02-28T03:49:53;8.00;;;1.85;;
51764;SDS011;37835;53.256;6.456;2023-02-28T03:52:22;7.13;;;1.80;;
51764;SDS011;37835;53.256;6.456;2023-02-28T03:54:54;6.95;;;1.60;;
51764;SDS011;37835;53.256;6.456;2023-02-28T03:57:32;7.60;;;2.40;;
51764;SDS011;37835;53.256;6.456;2023-02-28T04:00:19;6.63;;;2.35;;
51764;SDS011;37835;53.256;6.456;2023-02-28T04:02:50;6.53;;;2.75;;
51764;SDS011;37835;53.256;6.456;2023-02-28T04:05:51;7.53;;;3.08;;
51764;SDS011;37835;53.256;6.456;2023-02-28T04:08:19;8.18;;;3.75;;
51764;SDS011;37835;53.256;6.456;2023-02-28T04:10:45;5.90;;;2.80;;
51764;SDS011;37835;53.256;6.456;2023-02-28T04:13:18;7.15;;;3.63;;
51764;SDS011;37835;53.256;6.456;2023-02-28T04:15:43;10.68;;;4.93;;
51764;SDS011;37835;53.256;6.456;2023-02-28T04:18:09;10.93;;;5.90;;
51764;SDS011;37835;53.256;6.456;2023-02-28T04:20:34;13.13;;;7.88;;
51764;SDS011;37835;53.256;6.456;2023-02-28T04:23:01;14.50;;;9.50;;
51764;SDS011;37835;53.256;6.456;2023-02-28T04:25:26;13.38;;;9.75;;
51764;SDS011;37835;53.256;6.456;2023-02-28T04:27:52;15.25;;;10.18;;
51764;SDS011;37835;53.256;6.456;2023-02-28T04:30:17;16.33;;;9.60;;
51764;SDS011;37835;53.256;6.456;2023-02-28T04:32:43;15.60;;;10.50;;
51764;SDS011;37835;53.256;6.456;2023-02-28T04:35:09;17.70;;;10.27;;
51764;SDS011;37835;53.256;6.456;2023-02-28T04:37:34;14.45;;;10.48;;
51764;SDS011;37835;53.256;6.456;2023-02-28T04:40:02;14.20;;;10.18;;
51764;SDS011;37835;53.256;6.456;2023-02-28T04:42:28;13.25;;;9.55;;
51764;SDS011;37835;53.256;6.456;2023-02-28T04:47:27;14.27;;;9.75;;
51764;SDS011;37835;53.256;6.456;2023-02-28T04:49:52;12.38;;;9.27;;
51764;SDS011;37835;53.256;6.456;2023-02-28T04:52:18;12.35;;;9.70;;
51764;SDS011;37835;53.256;6.456;2023-02-28T04:54:44;12.07;;;9.85;;
51764;SDS011;37835;53.256;6.456;2023-02-28T04:57:10;12.00;;;9.15;;
51764;SDS011;37835;53.256;6.456;2023-02-28T04:59:35;14.48;;;10.32;;
51764;SDS011;37835;53.256;6.456;2023-02-28T05:02:01;12.77;;;9.60;;
51764;SDS011;37835;53.256;6.456;2023-02-28T05:04:31;12.40;;;9.32;;
51764;SDS011;37835;53.256;6.456;2023-02-28T05:07:00;11.02;;;9.13;;
51764;SDS011;37835;53.256;6.456;2023-02-28T05:09:27;12.73;;;9.15;;
51764;SDS011;37835;53.256;6.456;2023-02-28T05:11:53;14.50;;;9.85;;
51764;SDS011;37835;53.256;6.456;2023-02-28T05:14:19;11.75;;;8.88;;
51764;SDS011;37835;53.256;6.456;2023-02-28T05:16:45;10.70;;;8.73;;
51764;SDS011;37835;53.256;6.456;2023-02-28T05:19:10;13.52;;;7.68;;
51764;SDS011;37835;53.256;6.456;2023-02-28T05:21:57;7.72;;;6.93;;
51764;SDS011;37835;53.256;6.456;2023-02-28T05:24:22;7.07;;;6.38;;
51764;SDS011;37835;53.256;6.456;2023-02-28T05:26:48;9.20;;;6.63;;
51764;SDS011;37835;53.256;6.456;2023-02-28T05:29:16;8.43;;;6.60;;
51764;SDS011;37835;53.256;6.456;2023-02-28T05:31:42;8.13;;;6.18;;
51764;SDS011;37835;53.256;6.456;2023-02-28T05:34:07;7.63;;;6.25;;
51764;SDS011;37835;53.256;6.456;2023-02-28T05:36:36;8.43;;;6.18;;
51764;SDS011;37835;53.256;6.456;2023-02-28T05:39:02;8.70;;;7.03;;
51764;SDS011;37835;53.256;6.456;2023-02-28T05:41:29;9.63;;;7.38;;
51764;SDS011;37835;53.256;6.456;2023-02-28T05:43:55;11.13;;;7.65;;
51764;SDS011;37835;53.256;6.456;2023-02-28T05:46:22;14.93;;;8.15;;
51764;SDS011;37835;53.256;6.456;2023-02-28T05:48:48;13.93;;;8.02;;
51764;SDS011;37835;53.256;6.456;2023-02-28T05:51:14;16.80;;;8.30;;
51764;SDS011;37835;53.256;6.456;2023-02-28T05:53:40;12.65;;;9.13;;
51764;SDS011;37835;53.256;6.456;2023-02-28T05:56:05;12.60;;;8.68;;
51764;SDS011;37835;53.256;6.456;2023-02-28T05:58:31;17.23;;;9.38;;
51764;SDS011;37835;53.256;6.456;2023-02-28T06:00:57;11.93;;;9.13;;
51764;SDS011;37835;53.256;6.456;2023-02-28T06:03:24;13.75;;;8.80;;
51764;SDS011;37835;53.256;6.456;2023-02-28T06:05:49;13.55;;;9.45;;
51764;SDS011;37835;53.256;6.456;2023-02-28T06:08:15;14.52;;;9.75;;
51764;SDS011;37835;53.256;6.456;2023-02-28T06:10:41;16.85;;;9.52;;
51764;SDS011;37835;53.256;6.456;2023-02-28T06:13:06;15.50;;;9.15;;
51764;SDS011;37835;53.256;6.456;2023-02-28T06:15:32;13.63;;;10.02;;
51764;SDS011;37835;53.256;6.456;2023-02-28T06:17:58;13.25;;;9.70;;
51764;SDS011;37835;53.256;6.456;2023-02-28T06:20:25;12.90;;;9.93;;
51764;SDS011;37835;53.256;6.456;2023-02-28T06:22:55;14.45;;;10.48;;
51764;SDS011;37835;53.256;6.456;2023-02-28T06:25:23;16.60;;;9.93;;
51764;SDS011;37835;53.256;6.456;2023-02-28T06:27:49;17.30;;;10.20;;
51764;SDS011;37835;53.256;6.456;2023-02-28T06:30:15;16.33;;;10.98;;
51764;SDS011;37835;53.256;6.456;2023-02-28T06:32:40;16.13;;;10.82;;
51764;SDS011;37835;53.256;6.456;2023-02-28T06:35:06;14.77;;;10.13;;
51764;SDS011;37835;53.256;6.456;2023-02-28T06:37:32;13.57;;;10.68;;
51764;SDS011;37835;53.256;6.456;2023-02-28T06:39:58;17.02;;;11.57;;
51764;SDS011;37835;53.256;6.456;2023-02-28T06:42:24;15.70;;;11.23;;
51764;SDS011;37835;53.256;6.456;2023-02-28T06:44:53;14.63;;;10.90;;
51764;SDS011;37835;53.256;6.456;2023-02-28T06:47:19;14.60;;;10.98;;
51764;SDS011;37835;53.256;6.456;2023-02-28T06:49:45;17.35;;;11.93;;
51764;SDS011;37835;53.256;6.456;2023-02-28T06:52:10;14.07;;;11.20;;
51764;SDS011;37835;53.256;6.456;2023-02-28T06:54:36;18.45;;;11.60;;
51764;SDS011;37835;53.256;6.456;2023-02-28T06:57:02;16.60;;;11.93;;
51764;SDS011;37835;53.256;6.456;2023-02-28T06:59:28;17.08;;;11.63;;
51764;SDS011;37835;53.256;6.456;2023-02-28T07:01:53;18.40;;;12.38;;
51764;SDS011;37835;53.256;6.456;2023-02-28T07:04:20;16.48;;;12.00;;
51764;SDS011;37835;53.256;6.456;2023-02-28T07:06:46;14.15;;;11.23;;
51764;SDS011;37835;53.256;6.456;2023-02-28T07:09:12;14.80;;;11.23;;
51764;SDS011;37835;53.256;6.456;2023-02-28T07:11:39;19.50;;;12.43;;
51764;SDS011;37835;53.256;6.456;2023-02-28T07:14:05;18.33;;;13.10;;
51764;SDS011;37835;53.256;6.456;2023-02-28T07:16:31;19.95;;;13.88;;
51764;SDS011;37835;53.256;6.456;2023-02-28T07:18:57;20.13;;;14.40;;
51764;SDS011;37835;53.256;6.456;2023-02-28T07:21:23;21.90;;;14.50;;
51764;SDS011;37835;53.256;6.456;2023-02-28T07:23:49;21.92;;;14.00;;
51764;SDS011;37835;53.256;6.456;2023-02-28T07:26:15;24.98;;;15.30;;
51764;SDS011;37835;53.256;6.456;2023-02-28T07:28:42;26.52;;;14.35;;
51764;SDS011;37835;53.256;6.456;2023-02-28T07:31:09;23.02;;;14.90;;
51764;SDS011;37835;53.256;6.456;2023-02-28T07:33:34;23.55;;;15.15;;
51764;SDS011;37835;53.256;6.456;2023-02-28T07:36:04;22.70;;;14.77;;
51764;SDS011;37835;53.256;6.456;2023-02-28T07:38:40;20.30;;;14.50;;
51764;SDS011;37835;53.256;6.456;2023-02-28T07:41:07;24.55;;;14.63;;
51764;SDS011;37835;53.256;6.456;2023-02-28T07:43:33;23.33;;;14.98;;
51764;SDS011;37835;53.256;6.456;2023-02-28T07:46:03;23.77;;;14.68;;
51764;SDS011;37835;53.256;6.456;2023-02-28T07:48:34;24.40;;;14.70;;
51764;SDS011;37835;53.256;6.456;2023-02-28T07:50:59;22.40;;;13.93;;
51764;SDS011;37835;53.256;6.456;2023-02-28T07:53:26;25.05;;;14.27;;
51764;SDS011;37835;53.256;6.456;2023-02-28T07:55:56;18.05;;;12.88;;
51764;SDS011;37835;53.256;6.456;2023-02-28T07:58:22;20.17;;;13.63;;
51764;SDS011;37835;53.256;6.456;2023-02-28T08:00:49;18.63;;;12.80;;
51764;SDS011;37835;53.256;6.456;2023-02-28T08:03:15;17.40;;;12.38;;
51764;SDS011;37835;53.256;6.456;2023-02-28T08:05:43;21.52;;;13.65;;
51764;SDS011;37835;53.256;6.456;2023-02-28T08:08:08;19.52;;;12.88;;
51764;SDS011;37835;53.256;6.456;2023-02-28T08:10:34;19.38;;;12.93;;
51764;SDS011;37835;53.256;6.456;2023-02-28T08:13:00;20.55;;;12.50;;
51764;SDS011;37835;53.256;6.456;2023-02-28T08:15:26;21.25;;;13.00;;
51764;SDS011;37835;53.256;6.456;2023-02-28T08:17:51;18.65;;;11.90;;
51764;SDS011;37835;53.256;6.456;2023-02-28T08:20:17;17.65;;;12.55;;
51764;SDS011;37835;53.256;6.456;2023-02-28T08:22:42;21.15;;;12.70;;
51764;SDS011;37835;53.256;6.456;2023-02-28T08:25:08;18.00;;;13.50;;
51764;SDS011;37835;53.256;6.456;2023-02-28T08:27:34;22.90;;;12.63;;
51764;SDS011;37835;53.256;6.456;2023-02-28T08:30:00;22.35;;;12.75;;
51764;SDS011;37835;53.256;6.456;2023-02-28T08:32:26;23.42;;;13.68;;
51764;SDS011;37835;53.256;6.456;2023-02-28T08:34:51;20.25;;;13.25;;
51764;SDS011;37835;53.256;6.456;2023-02-28T08:37:17;22.13;;;13.65;;
51764;SDS011;37835;53.256;6.456;2023-02-28T08:39:42;19.02;;;13.10;;
51764;SDS011;37835;53.256;6.456;2023-02-28T08:42:08;19.75;;;13.60;;
51764;SDS011;37835;53.256;6.456;2023-02-28T08:44:33;17.45;;;12.85;;
51764;SDS011;37835;53.256;6.456;2023-02-28T08:46:59;19.98;;;13.13;;
51764;SDS011;37835;53.256;6.456;2023-02-28T08:49:25;21.05;;;13.48;;
51764;SDS011;37835;53.256;6.456;2023-02-28T08:51:51;17.88;;;12.55;;
51764;SDS011;37835;53.256;6.456;2023-02-28T08:54:16;16.67;;;12.18;;
51764;SDS011;37835;53.256;6.456;2023-02-28T08:56:44;19.25;;;12.43;;
51764;SDS011;37835;53.256;6.456;2023-02-28T08:59:11;17.25;;;12.35;;
51764;SDS011;37835;53.256;6.456;2023-02-28T09:01:36;15.82;;;12.88;;
51764;SDS011;37835;53.256;6.456;2023-02-28T09:04:02;18.98;;;12.50;;
51764;SDS011;37835;53.256;6.456;2023-02-28T09:06:27;19.33;;;12.95;;
51764;SDS011;37835;53.256;6.456;2023-02-28T09:08:55;23.10;;;12.80;;
51764;SDS011;37835;53.256;6.456;2023-02-28T09:11:23;21.02;;;13.15;;
51764;SDS011;37835;53.256;6.456;2023-02-28T09:13:49;16.42;;;12.15;;
51764;SDS011;37835;53.256;6.456;2023-02-28T09:16:15;15.85;;;12.35;;
51764;SDS011;37835;53.256;6.456;2023-02-28T09:18:41;15.90;;;11.63;;
51764;SDS011;37835;53.256;6.456;2023-02-28T09:21:08;17.17;;;12.43;;
51764;SDS011;37835;53.256;6.456;2023-02-28T09:23:39;18.08;;;12.15;;
51764;SDS011;37835;53.256;6.456;2023-02-28T09:26:06;17.42;;;10.80;;
51764;SDS011;37835;53.256;6.456;2023-02-28T09:28:32;18.05;;;11.90;;
51764;SDS011;37835;53.256;6.456;2023-02-28T09:30:57;17.30;;;11.10;;
51764;SDS011;37835;53.256;6.456;2023-02-28T09:33:24;21.27;;;11.60;;
51764;SDS011;37835;53.256;6.456;2023-02-28T09:35:51;18.15;;;12.15;;
51764;SDS011;37835;53.256;6.456;2023-02-28T09:38:22;16.02;;;10.68;;
51764;SDS011;37835;53.256;6.456;2023-02-28T09:40:58;15.55;;;10.63;;
51764;SDS011;37835;53.256;6.456;2023-02-28T09:43:26;17.83;;;10.57;;
51764;SDS011;37835;53.256;6.456;2023-02-28T09:46:10;15.55;;;10.65;;
51764;SDS011;37835;53.256;6.456;2023-02-28T09:48:52;14.07;;;9.80;;
51764;SDS011;37835;53.256;6.456;2023-02-28T09:53:58;12.82;;;10.00;;
51764;SDS011;37835;53.256;6.456;2023-02-28T09:56:25;14.95;;;10.63;;
51764;SDS011;37835;53.256;6.456;2023-02-28T09:58:59;17.23;;;10.30;;
51764;SDS011;37835;53.256;6.456;2023-02-28T10:10:56;18.98;;;11.00;;
51764;SDS011;37835;53.256;6.456;2023-02-28T10:13:02;15.77;;;11.00;;
51764;SDS011;37835;53.256;6.456;2023-02-28T10:15:31;13.25;;;10.40;;
51764;SDS011;37835;53.256;6.456;2023-02-28T10:18:00;13.52;;;9.73;;
51764;SDS011;37835;53.256;6.456;2023-02-28T10:20:29;17.55;;;10.10;;
51764;SDS011;37835;53.256;6.456;2023-02-28T10:23:13;12.05;;;9.40;;
51764;SDS011;37835;53.256;6.456;2023-02-28T10:25:47;14.85;;;8.55;;
51764;SDS011;37835;53.256;6.456;2023-02-28T10:28:19;14.23;;;9.10;;
51764;SDS011;37835;53.256;6.456;2023-02-28T10:30:48;13.05;;;8.30;;
51764;SDS011;37835;53.256;6.456;2023-02-28T10:33:17;11.65;;;7.70;;
51764;SDS011;37835;53.256;6.456;2023-02-28T10:35:46;10.70;;;7.88;;
51764;SDS011;37835;53.256;6.456;2023-02-28T10:38:16;10.85;;;8.50;;
51764;SDS011;37835;53.256;6.456;2023-02-28T10:40:44;11.52;;;8.10;;
51764;SDS011;37835;53.256;6.456;2023-02-28T10:45:38;14.32;;;8.50;;
51764;SDS011;37835;53.256;6.456;2023-02-28T10:48:06;13.55;;;8.45;;
51764;SDS011;37835;53.256;6.456;2023-02-28T10:51:02;8.05;;;6.45;;
51764;SDS011;37835;53.256;6.456;2023-02-28T10:53:34;10.68;;;7.45;;
51764;SDS011;37835;53.256;6.456;2023-02-28T10:58:51;11.43;;;7.40;;
51764;SDS011;37835;53.256;6.456;2023-02-28T11:01:23;11.05;;;6.68;;
51764;SDS011;37835;53.256;6.456;2023-02-28T11:03:58;7.55;;;5.68;;
51764;SDS011;37835;53.256;6.456;2023-02-28T11:06:31;15.35;;;7.38;;
51764;SDS011;37835;53.256;6.456;2023-02-28T11:09:03;9.82;;;6.75;;
51764;SDS011;37835;53.256;6.456;2023-02-28T11:11:40;9.95;;;6.22;;
51764;SDS011;37835;53.256;6.456;2023-02-28T11:14:16;8.25;;;5.68;;
51764;SDS011;37835;53.256;6.456;2023-02-28T11:16:46;10.27;;;6.25;;
51764;SDS011;37835;53.256;6.456;2023-02-28T11:19:19;9.05;;;6.13;;
51764;SDS011;37835;53.256;6.456;2023-02-28T11:21:52;8.20;;;5.25;;
51764;SDS011;37835;53.256;6.456;2023-02-28T11:24:27;8.18;;;5.63;;
51764;SDS011;37835;53.256;6.456;2023-02-28T11:26:56;7.00;;;5.40;;
51764;SDS011;37835;53.256;6.456;2023-02-28T11:29:23;8.15;;;5.97;;
51764;SDS011;37835;53.256;6.456;2023-02-28T11:32:02;8.20;;;5.95;;
51764;SDS011;37835;53.256;6.456;2023-02-28T11:34:28;7.68;;;5.45;;
51764;SDS011;37835;53.256;6.456;2023-02-28T11:36:54;7.28;;;5.45;;
51764;SDS011;37835;53.256;6.456;2023-02-28T11:39:22;9.60;;;5.10;;
51764;SDS011;37835;53.256;6.456;2023-02-28T11:47:31;6.57;;;4.88;;
51764;SDS011;37835;53.256;6.456;2023-02-28T11:52:56;8.18;;;4.70;;
51764;SDS011;37835;53.256;6.456;2023-02-28T11:58:13;5.43;;;4.80;;
51764;SDS011;37835;53.256;6.456;2023-02-28T12:09:02;7.00;;;5.38;;
51764;SDS011;37835;53.256;6.456;2023-02-28T12:25:19;7.55;;;5.55;;
51764;SDS011;37835;53.256;6.456;2023-02-28T12:27:49;7.07;;;5.30;;
51764;SDS011;37835;53.256;6.456;2023-02-28T12:30:28;5.43;;;4.93;;
51764;SDS011;37835;53.256;6.456;2023-02-28T12:35:26;6.40;;;5.22;;
51764;SDS011;37835;53.256;6.456;2023-02-28T12:38:04;8.25;;;5.07;;
51764;SDS011;37835;53.256;6.456;2023-02-28T12:43:25;6.38;;;5.40;;
51764;SDS011;37835;53.256;6.456;2023-02-28T12:46:07;7.97;;;5.38;;
51764;SDS011;37835;53.256;6.456;2023-02-28T12:48:58;6.32;;;5.45;;
51764;SDS011;37835;53.256;6.456;2023-02-28T12:51:29;6.88;;;5.13;;
51764;SDS011;37835;53.256;6.456;2023-02-28T12:54:02;7.60;;;5.38;;
51764;SDS011;37835;53.256;6.456;2023-02-28T13:07:20;9.18;;;5.55;;
51764;SDS011;37835;53.256;6.456;2023-02-28T13:09:57;9.40;;;5.70;;
51764;SDS011;37835;53.256;6.456;2023-02-28T13:12:25;8.50;;;5.75;;
51764;SDS011;37835;53.256;6.456;2023-02-28T13:14:53;8.80;;;5.63;;
51764;SDS011;37835;53.256;6.456;2023-02-28T13:17:31;8.68;;;5.80;;
51764;SDS011;37835;53.256;6.456;2023-02-28T13:19:58;7.65;;;5.75;;
51764;SDS011;37835;53.256;6.456;2023-02-28T13:24:51;6.28;;;5.43;;
51764;SDS011;37835;53.256;6.456;2023-02-28T13:27:31;8.70;;;6.00;;
51764;SDS011;37835;53.256;6.456;2023-02-28T13:29:58;9.90;;;5.88;;
51764;SDS011;37835;53.256;6.456;2023-02-28T13:39:53;8.57;;;6.18;;
51764;SDS011;37835;53.256;6.456;2023-02-28T14:06:25;8.68;;;6.20;;
51764;SDS011;37835;53.256;6.456;2023-02-28T14:11:45;7.53;;;6.00;;
51764;SDS011;37835;53.256;6.456;2023-02-28T14:17:02;6.80;;;6.10;;
51764;SDS011;37835;53.256;6.456;2023-02-28T14:19:32;10.30;;;6.68;;
51764;SDS011;37835;53.256;6.456;2023-02-28T14:24:45;7.75;;;6.20;;
51764;SDS011;37835;53.256;6.456;2023-02-28T14:30:15;8.85;;;6.25;;
51764;SDS011;37835;53.256;6.456;2023-02-28T14:33:11;10.82;;;6.32;;
51764;SDS011;37835;53.256;6.456;2023-02-28T14:36:07;8.15;;;6.25;;
51764;SDS011;37835;53.256;6.456;2023-02-28T14:38:46;8.57;;;6.65;;
51764;SDS011;37835;53.256;6.456;2023-02-28T14:41:40;8.23;;;6.65;;
51764;SDS011;37835;53.256;6.456;2023-02-28T14:44:39;6.85;;;5.82;;
51764;SDS011;37835;53.256;6.456;2023-02-28T14:47:01;7.38;;;5.90;;
51764;SDS011;37835;53.256;6.456;2023-02-28T14:49:29;8.75;;;6.20;;
51764;SDS011;37835;53.256;6.456;2023-02-28T14:52:03;10.13;;;6.70;;
51764;SDS011;37835;53.256;6.456;2023-02-28T14:54:34;10.25;;;6.93;;
51764;SDS011;37835;53.256;6.456;2023-02-28T14:57:01;10.48;;;6.47;;
51764;SDS011;37835;53.256;6.456;2023-02-28T14:59:34;6.20;;;5.60;;
51764;SDS011;37835;53.256;6.456;2023-02-28T15:05:02;10.93;;;7.15;;
51764;SDS011;37835;53.256;6.456;2023-02-28T15:07:35;10.63;;;6.55;;
51764;SDS011;37835;53.256;6.456;2023-02-28T15:10:08;10.63;;;6.13;;
51764;SDS011;37835;53.256;6.456;2023-02-28T15:12:56;9.55;;;7.35;;
51764;SDS011;37835;53.256;6.456;2023-02-28T15:20:59;13.05;;;7.95;;
51764;SDS011;37835;53.256;6.456;2023-02-28T15:23:30;8.70;;;7.78;;
51764;SDS011;37835;53.256;6.456;2023-02-28T15:25:56;10.95;;;7.97;;
51764;SDS011;37835;53.256;6.456;2023-02-28T15:28:23;10.82;;;7.28;;
51764;SDS011;37835;53.256;6.456;2023-02-28T15:30:53;11.25;;;8.10;;
51764;SDS011;37835;53.256;6.456;2023-02-28T15:35:48;9.50;;;7.13;;
51764;SDS011;37835;53.256;6.456;2023-02-28T15:38:24;10.05;;;6.93;;
51764;SDS011;37835;53.256;6.456;2023-02-28T15:40:55;9.20;;;7.22;;
51764;SDS011;37835;53.256;6.456;2023-02-28T15:43:23;10.45;;;7.43;;
51764;SDS011;37835;53.256;6.456;2023-02-28T15:46:06;10.77;;;8.02;;
51764;SDS011;37835;53.256;6.456;2023-02-28T15:48:42;11.15;;;7.97;;
51764;SDS011;37835;53.256;6.456;2023-02-28T15:53:51;12.77;;;8.48;;
51764;SDS011;37835;53.256;6.456;2023-02-28T15:56:25;12.95;;;8.50;;
51764;SDS011;37835;53.256;6.456;2023-02-28T15:58:57;9.05;;;7.95;;
51764;SDS011;37835;53.256;6.456;2023-02-28T16:01:27;11.77;;;8.63;;
51764;SDS011;37835;53.256;6.456;2023-02-28T16:03:56;12.40;;;8.13;;
51764;SDS011;37835;53.256;6.456;2023-02-28T16:06:34;11.18;;;8.70;;
51764;SDS011;37835;53.256;6.456;2023-02-28T16:09:06;14.23;;;9.82;;
51764;SDS011;37835;53.256;6.456;2023-02-28T16:11:34;9.93;;;8.43;;
51764;SDS011;37835;53.256;6.456;2023-02-28T16:14:03;11.68;;;8.43;;
51764;SDS011;37835;53.256;6.456;2023-02-28T16:16:29;13.02;;;8.52;;
51764;SDS011;37835;53.256;6.456;2023-02-28T16:18:57;9.73;;;7.90;;
51764;SDS011;37835;53.256;6.456;2023-02-28T16:21:22;11.95;;;8.18;;
51764;SDS011;37835;53.256;6.456;2023-02-28T16:23:50;17.17;;;9.30;;
51764;SDS011;37835;53.256;6.456;2023-02-28T16:26:18;13.13;;;9.25;;
51764;SDS011;37835;53.256;6.456;2023-02-28T16:28:49;13.13;;;8.77;;
51764;SDS011;37835;53.256;6.456;2023-02-28T16:31:15;12.05;;;8.60;;
51764;SDS011;37835;53.256;6.456;2023-02-28T16:33:42;11.52;;;9.65;;
51764;SDS011;37835;53.256;6.456;2023-02-28T16:36:12;13.50;;;9.55;;
51764;SDS011;37835;53.256;6.456;2023-02-28T16:38:39;13.38;;;9.00;;
51764;SDS011;37835;53.256;6.456;2023-02-28T16:41:05;13.25;;;8.98;;
51764;SDS011;37835;53.256;6.456;2023-02-28T16:43:31;16.52;;;11.05;;
51764;SDS011;37835;53.256;6.456;2023-02-28T16:45:57;15.82;;;12.60;;
51764;SDS011;37835;53.256;6.456;2023-02-28T16:48:23;17.05;;;13.38;;
51764;SDS011;37835;53.256;6.456;2023-02-28T16:50:49;17.63;;;13.43;;
51764;SDS011;37835;53.256;6.456;2023-02-28T16:53:15;17.05;;;13.30;;
51764;SDS011;37835;53.256;6.456;2023-02-28T16:55:41;14.77;;;11.07;;
51764;SDS011;37835;53.256;6.456;2023-02-28T16:58:10;15.02;;;11.18;;
51764;SDS011;37835;53.256;6.456;2023-02-28T17:00:39;13.05;;;10.48;;
51764;SDS011;37835;53.256;6.456;2023-02-28T17:03:05;11.80;;;9.60;;
51764;SDS011;37835;53.256;6.456;2023-02-28T17:05:35;13.18;;;9.52;;
51764;SDS011;37835;53.256;6.456;2023-02-28T17:08:03;11.75;;;9.60;;
51764;SDS011;37835;53.256;6.456;2023-02-28T17:10:28;13.73;;;10.23;;
51764;SDS011;37835;53.256;6.456;2023-02-28T17:12:54;13.43;;;10.38;;
51764;SDS011;37835;53.256;6.456;2023-02-28T17:15:20;14.23;;;10.73;;
51764;SDS011;37835;53.256;6.456;2023-02-28T17:17:46;13.85;;;11.07;;
51764;SDS011;37835;53.256;6.456;2023-02-28T17:20:18;16.60;;;11.60;;
51764;SDS011;37835;53.256;6.456;2023-02-28T17:22:48;17.15;;;12.18;;
51764;SDS011;37835;53.256;6.456;2023-02-28T17:25:15;18.10;;;11.85;;
51764;SDS011;37835;53.256;6.456;2023-02-28T17:27:41;16.23;;;11.23;;
51764;SDS011;37835;53.256;6.456;2023-02-28T17:30:14;17.13;;;11.60;;